createdAt,value
2023-05-19T00:00:14.805Z,6.28
2023-05-19T00:03:05.085Z,6.28
2023-05-19T00:05:34.527Z,6.22
2023-05-19T00:08:04.351Z,6.14
2023-05-19T00:10:33.870Z,6.12
2023-05-19T00:13:04.734Z,6.08
2023-05-19T00:15:33.973Z,6.04
2023-05-19T00:18:03.442Z,6.03
2023-05-19T00:20:32.999Z,6.00
2023-05-19T00:23:02.431Z,5.95
2023-05-19T00:25:31.299Z,5.93
2023-05-19T00:28:00.732Z,5.88
2023-05-19T00:30:31.263Z,5.84
2023-05-19T00:33:00.810Z,5.78
2023-05-19T00:35:29.737Z,5.72
2023-05-19T00:38:00.475Z,5.68
2023-05-19T00:40:32.093Z,5.66
2023-05-19T00:43:02.275Z,5.65
2023-05-19T00:45:32.524Z,5.60
2023-05-19T00:48:02.084Z,5.56
2023-05-19T00:50:31.323Z,5.54
2023-05-19T00:53:00.848Z,5.50
2023-05-19T00:55:32.302Z,5.51
2023-05-19T00:58:01.881Z,5.47
2023-05-19T01:00:32.900Z,5.42
2023-05-19T01:03:11.237Z,5.41
2023-05-19T01:05:44.800Z,5.41
2023-05-19T01:08:14.293Z,5.37
2023-05-19T01:10:44.991Z,5.32
2023-05-19T01:13:14.359Z,5.29
2023-05-19T01:15:54.472Z,5.30
2023-05-19T01:18:27.333Z,5.23
2023-05-19T01:21:08.022Z,5.15
2023-05-19T01:23:43.503Z,5.14
2023-05-19T01:26:18.722Z,5.10
2023-05-19T01:29:09.295Z,5.06
2023-05-19T01:31:40.129Z,5.03
2023-05-19T01:34:10.838Z,5.03
2023-05-19T01:36:44.809Z,4.99
2023-05-19T01:39:15.381Z,4.97
2023-05-19T01:41:45.588Z,4.97
2023-05-19T01:44:16.093Z,4.94
2023-05-19T01:46:48.488Z,4.99
2023-05-19T01:49:17.843Z,4.91
2023-05-19T01:51:47.027Z,4.91
2023-05-19T01:54:16.262Z,4.94
2023-05-19T01:56:50.940Z,4.93
2023-05-19T01:59:25.249Z,4.83
2023-05-19T02:01:58.458Z,4.84
2023-05-19T02:04:39.241Z,4.85
2023-05-19T02:07:14.116Z,4.75
2023-05-19T02:10:02.766Z,4.75
2023-05-19T02:12:33.736Z,4.81
2023-05-19T02:15:06.150Z,4.86
2023-05-19T02:17:41.495Z,4.86
2023-05-19T02:20:12.490Z,4.92
2023-05-19T02:22:41.566Z,4.81
2023-05-19T02:25:11.417Z,4.85
2023-05-19T02:27:40.501Z,4.73
2023-05-19T02:33:58.993Z,4.70
2023-05-19T02:36:28.299Z,4.71
2023-05-19T02:38:57.413Z,4.77
2023-05-19T02:41:26.278Z,4.92
2023-05-19T02:43:55.744Z,4.87
2023-05-19T02:46:24.826Z,4.77
2023-05-19T02:48:55.180Z,4.84
2023-05-19T02:51:25.740Z,4.84
2023-05-19T02:53:54.916Z,4.81
2023-05-19T02:56:24.083Z,4.86
2023-05-19T02:58:53.241Z,5.01
2023-05-19T03:01:23.254Z,5.07
2023-05-19T03:03:52.736Z,4.94
2023-05-19T03:06:23.493Z,4.99
2023-05-19T03:08:54.108Z,4.90
2023-05-19T03:11:23.674Z,4.85
2023-05-19T03:13:52.881Z,4.88
2023-05-19T03:16:22.138Z,5.03
2023-05-19T03:18:51.372Z,5.11
2023-05-19T03:21:20.312Z,5.04
2023-05-19T03:23:49.619Z,5.04
2023-05-19T03:26:19.896Z,5.11
2023-05-19T03:28:49.165Z,5.24
2023-05-19T03:31:18.208Z,5.32
2023-05-19T03:33:47.484Z,5.36
2023-05-19T03:36:16.471Z,5.39
2023-05-19T03:38:45.777Z,5.46
2023-05-19T03:41:14.606Z,5.54
2023-05-19T03:43:45.345Z,5.64
2023-05-19T03:46:14.237Z,5.65
2023-05-19T03:48:49.162Z,5.70
2023-05-19T03:51:36.771Z,5.69
2023-05-19T03:54:26.267Z,5.75
2023-05-19T03:56:55.125Z,5.71
2023-05-19T03:59:25.955Z,5.74
2023-05-19T04:01:54.934Z,5.91
2023-05-19T04:04:24.094Z,6.01
2023-05-19T04:06:53.131Z,6.11
2023-05-19T04:09:24.024Z,6.16
2023-05-19T04:11:53.002Z,6.22
2023-05-19T04:14:22.125Z,6.29
2023-05-19T04:16:52.387Z,6.37
2023-05-19T04:19:21.614Z,6.41
2023-05-19T04:21:50.628Z,6.49
2023-05-19T04:24:19.851Z,6.56
2023-05-19T04:26:49.356Z,6.64
2023-05-19T04:29:20.603Z,6.70
2023-05-19T04:31:49.497Z,6.77
2023-05-19T04:34:20.653Z,6.87
2023-05-19T04:36:51.651Z,6.92
2023-05-19T04:39:24.136Z,6.92
2023-05-19T04:41:54.184Z,7.05
2023-05-19T04:44:23.293Z,7.19
2023-05-19T04:46:54.647Z,7.29
2023-05-19T04:49:26.982Z,7.41
2023-05-19T04:51:56.682Z,7.51
2023-05-19T04:54:30.649Z,7.55
2023-05-19T04:56:59.699Z,7.60
2023-05-19T04:59:31.452Z,7.74
2023-05-19T05:02:00.489Z,7.81
2023-05-19T05:04:33.815Z,7.92
2023-05-19T05:07:03.007Z,8.08
2023-05-19T05:09:32.210Z,8.26
2023-05-19T05:12:03.434Z,8.31
2023-05-19T05:14:33.113Z,8.33
2023-05-19T05:17:02.475Z,8.39
2023-05-19T05:19:33.581Z,8.48
2023-05-19T05:22:02.907Z,8.59
2023-05-19T05:24:32.961Z,8.83
2023-05-19T05:27:04.576Z,9.01
2023-05-19T05:29:35.247Z,9.09
2023-05-19T05:32:06.505Z,9.20
2023-05-19T05:34:38.198Z,9.34
2023-05-19T05:37:07.245Z,9.46
2023-05-19T05:39:37.241Z,9.66
2023-05-19T05:42:09.082Z,9.78
2023-05-19T05:44:38.523Z,9.92
2023-05-19T05:47:08.955Z,10.06
2023-05-19T05:49:40.457Z,10.21
2023-05-19T05:52:12.127Z,10.33
2023-05-19T05:54:47.480Z,10.49
2023-05-19T05:57:19.315Z,10.60
2023-05-19T05:59:48.827Z,10.72
2023-05-19T06:02:18.048Z,10.84
2023-05-19T06:04:48.935Z,10.93
2023-05-19T06:07:18.214Z,11.07
2023-05-19T06:09:47.610Z,11.20
2023-05-19T06:12:18.106Z,11.31
2023-05-19T06:14:50.686Z,11.42
2023-05-19T06:17:34.561Z,11.56
2023-05-19T06:20:06.552Z,11.66
2023-05-19T06:22:36.210Z,11.80
2023-05-19T06:25:09.029Z,11.92
2023-05-19T06:27:38.359Z,12.04
2023-05-19T06:30:08.896Z,12.17
2023-05-19T06:32:47.263Z,12.28
2023-05-19T06:35:18.145Z,12.42
2023-05-19T06:37:47.108Z,12.52
2023-05-19T06:40:16.721Z,12.62
2023-05-19T06:42:46.492Z,12.76
2023-05-19T06:45:24.617Z,12.87
2023-05-19T06:47:54.618Z,12.97
2023-05-19T06:50:25.464Z,13.07
2023-05-19T06:52:54.468Z,13.21
2023-05-19T06:55:23.777Z,13.26
2023-05-19T06:57:52.727Z,13.35
2023-05-19T07:00:23.958Z,13.40
2023-05-19T07:02:55.089Z,13.46
2023-05-19T07:05:25.777Z,13.50
2023-05-19T07:07:58.960Z,13.52
2023-05-19T07:10:30.978Z,13.53
2023-05-19T07:13:00.233Z,13.55
2023-05-19T07:15:33.259Z,13.61
2023-05-19T07:18:02.245Z,13.69
2023-05-19T07:20:33.853Z,13.79
2023-05-19T07:23:03.774Z,13.83
2023-05-19T07:25:33.559Z,13.84
2023-05-19T07:28:02.501Z,13.81
2023-05-19T07:30:31.771Z,13.87
2023-05-19T07:33:00.997Z,13.88
2023-05-19T07:35:30.277Z,13.93
2023-05-19T07:38:01.228Z,13.95
2023-05-19T07:40:31.087Z,14.05
2023-05-19T07:43:00.351Z,14.07
2023-05-19T07:45:29.786Z,14.16
2023-05-19T07:47:58.989Z,14.26
2023-05-19T07:50:28.109Z,14.36
2023-05-19T07:52:57.161Z,14.51
2023-05-19T07:55:27.908Z,14.63
2023-05-19T07:57:57.344Z,14.73
2023-05-19T08:00:26.478Z,14.82
2023-05-19T08:02:56.992Z,14.92
2023-05-19T08:05:29.825Z,15.07
2023-05-19T08:07:58.863Z,15.22
2023-05-19T08:10:30.028Z,15.33
2023-05-19T08:12:59.096Z,15.38
2023-05-19T08:15:28.252Z,15.45
2023-05-19T08:17:57.240Z,15.56
2023-05-19T08:20:26.380Z,15.68
2023-05-19T08:22:55.394Z,15.79
2023-05-19T08:25:24.531Z,15.85
2023-05-19T08:27:54.907Z,15.85
2023-05-19T08:30:24.466Z,15.89
2023-05-19T08:32:53.290Z,15.93
2023-05-19T08:35:22.530Z,15.93
2023-05-19T08:37:51.521Z,15.98
2023-05-19T08:40:21.525Z,16.01
2023-05-19T08:42:50.471Z,16.00
2023-05-19T08:45:20.998Z,16.08
2023-05-19T08:47:50.227Z,16.15
2023-05-19T08:50:24.952Z,16.19
2023-05-19T08:52:55.800Z,16.21
2023-05-19T08:55:31.271Z,16.22
2023-05-19T08:58:00.854Z,16.25
2023-05-19T09:00:31.837Z,16.26
2023-05-19T09:03:17.717Z,16.33
2023-05-19T09:05:51.911Z,16.42
2023-05-19T09:08:21.145Z,16.48
2023-05-19T09:10:50.338Z,16.49
2023-05-19T09:13:19.619Z,16.56
2023-05-19T09:15:51.520Z,16.61
2023-05-19T09:18:20.451Z,16.67
2023-05-19T09:20:49.575Z,16.73
2023-05-19T09:23:19.174Z,16.77
2023-05-19T09:25:49.384Z,16.86
2023-05-19T09:28:24.213Z,16.89
2023-05-19T09:31:01.729Z,16.88
2023-05-19T09:33:31.187Z,16.83
2023-05-19T09:36:00.667Z,16.90
2023-05-19T09:38:30.815Z,16.94
2023-05-19T09:41:01.648Z,16.95
2023-05-19T09:43:31.839Z,17.09
2023-05-19T09:46:04.826Z,17.07
2023-05-19T09:48:34.653Z,17.06
2023-05-19T09:51:05.256Z,17.06
2023-05-19T09:53:35.538Z,17.05
2023-05-19T09:56:04.935Z,16.93
2023-05-19T09:58:36.544Z,16.94
2023-05-19T10:01:07.669Z,16.91
2023-05-19T10:03:36.939Z,16.90
2023-05-19T10:06:07.468Z,16.88
2023-05-19T10:08:38.236Z,16.82
2023-05-19T10:11:09.737Z,16.85
2023-05-19T10:13:40.069Z,16.77
2023-05-19T10:16:11.884Z,16.79
2023-05-19T10:18:41.138Z,16.79
2023-05-19T10:21:10.649Z,16.73
2023-05-19T10:23:39.625Z,16.78
2023-05-19T10:26:09.700Z,16.80
2023-05-19T10:28:40.655Z,16.80
2023-05-19T10:31:12.679Z,16.78
2023-05-19T10:33:48.703Z,16.73
2023-05-19T10:36:26.723Z,16.67
2023-05-19T10:39:00.080Z,16.63
2023-05-19T10:41:33.126Z,16.58
2023-05-19T10:44:09.249Z,16.44
2023-05-19T10:46:43.270Z,16.34
2023-05-19T10:49:20.858Z,16.29
2023-05-19T10:51:50.305Z,16.28
2023-05-19T10:54:39.259Z,16.22
2023-05-19T10:57:09.955Z,16.07
2023-05-19T10:59:39.502Z,16.09
2023-05-19T11:02:10.792Z,16.00
2023-05-19T11:04:40.625Z,15.93
2023-05-19T11:07:10.532Z,15.89
2023-05-19T11:09:41.750Z,15.81
2023-05-19T11:12:11.899Z,15.78
2023-05-19T11:14:41.518Z,15.66
2023-05-19T11:17:15.092Z,15.63
2023-05-19T11:19:53.811Z,15.53
2023-05-19T11:22:24.812Z,15.58
2023-05-19T11:24:55.929Z,15.58
2023-05-19T11:27:26.515Z,15.54
2023-05-19T11:29:56.164Z,15.56
2023-05-19T11:32:30.790Z,15.63
2023-05-19T11:35:00.239Z,15.56
2023-05-19T11:37:29.857Z,15.62
2023-05-19T11:39:59.119Z,15.65
2023-05-19T11:42:28.232Z,15.70
2023-05-19T11:44:57.249Z,15.71
2023-05-19T11:47:27.035Z,15.81
2023-05-19T11:49:57.677Z,15.89
2023-05-19T11:52:28.405Z,15.89
2023-05-19T11:55:01.080Z,15.89
2023-05-19T11:57:30.789Z,15.97
2023-05-19T12:00:03.653Z,16.06
2023-05-19T12:02:34.618Z,16.14
2023-05-19T12:05:05.146Z,16.22
2023-05-19T12:07:34.474Z,16.30
2023-05-19T12:10:06.602Z,16.41
2023-05-19T12:12:36.122Z,16.47
2023-05-19T12:15:05.647Z,16.54
2023-05-19T12:17:34.839Z,16.60
2023-05-19T12:20:06.207Z,16.63
2023-05-19T12:22:35.674Z,16.69
2023-05-19T12:25:05.254Z,16.77
2023-05-19T12:27:36.817Z,16.79
2023-05-19T12:30:06.113Z,16.80
2023-05-19T12:32:36.561Z,16.88
2023-05-19T12:35:07.527Z,16.89
2023-05-19T12:37:37.855Z,16.89
2023-05-19T12:40:07.513Z,16.89
2023-05-19T12:42:37.992Z,16.97
2023-05-19T12:45:07.452Z,16.99
2023-05-19T12:47:36.956Z,17.06
2023-05-19T12:50:09.283Z,17.13
2023-05-19T12:52:42.940Z,17.17
2023-05-19T12:55:12.400Z,17.27
2023-05-19T12:57:42.623Z,17.32
2023-05-19T13:00:15.024Z,17.35
2023-05-19T13:02:57.622Z,17.39
2023-05-19T13:05:28.394Z,17.42
2023-05-19T13:07:58.441Z,17.42
2023-05-19T13:10:28.187Z,17.36
2023-05-19T13:12:57.995Z,17.35
2023-05-19T13:15:27.558Z,17.37
2023-05-19T13:17:56.705Z,17.33
2023-05-19T13:20:28.207Z,17.35
2023-05-19T13:22:59.500Z,17.38
2023-05-19T13:25:28.554Z,17.38
2023-05-19T13:27:59.485Z,17.36
2023-05-19T13:30:28.559Z,17.33
2023-05-19T13:32:57.768Z,17.35
2023-05-19T13:35:26.758Z,17.33
2023-05-19T13:37:55.921Z,17.35
2023-05-19T13:40:28.312Z,17.35
2023-05-19T13:42:57.703Z,17.37
2023-05-19T13:45:26.537Z,17.36
2023-05-19T13:47:56.015Z,17.36
2023-05-19T13:50:24.937Z,17.34
2023-05-19T13:52:54.336Z,17.33
2023-05-19T13:55:23.675Z,17.30
2023-05-19T13:57:54.558Z,17.22
2023-05-19T14:00:24.042Z,17.08
2023-05-19T14:02:53.919Z,17.07
2023-05-19T14:05:23.052Z,17.05
2023-05-19T14:07:52.477Z,16.99
2023-05-19T14:10:23.125Z,16.90
2023-05-19T14:15:28.999Z,16.72
2023-05-19T14:17:59.206Z,16.66
2023-05-19T14:20:29.426Z,16.65
2023-05-19T14:22:58.878Z,16.62
2023-05-19T14:25:27.748Z,16.58
2023-05-19T14:27:56.957Z,16.58
2023-05-19T14:30:25.786Z,16.55
2023-05-19T14:32:56.601Z,16.53
2023-05-19T14:35:26.186Z,16.47
2023-05-19T14:37:55.452Z,16.44
2023-05-19T14:40:24.403Z,16.43
2023-05-19T14:42:53.879Z,16.41
2023-05-19T14:45:22.751Z,16.40
2023-05-19T14:47:52.755Z,16.35
2023-05-19T14:50:23.207Z,16.27
2023-05-19T14:52:52.419Z,16.27
2023-05-19T14:55:21.391Z,16.26
2023-05-19T14:57:50.969Z,16.24
2023-05-19T15:00:20.158Z,16.11
2023-05-19T15:02:49.663Z,16.09
2023-05-19T15:05:19.233Z,15.94
2023-05-19T15:07:50.282Z,15.95
2023-05-19T15:10:20.462Z,15.94
2023-05-19T15:12:50.124Z,15.81
2023-05-19T15:15:19.718Z,15.77
2023-05-19T15:17:48.907Z,15.74
2023-05-19T15:20:17.992Z,15.72
2023-05-19T15:22:47.196Z,15.72
2023-05-19T15:25:17.748Z,15.70
2023-05-19T15:27:46.980Z,15.70
2023-05-19T15:30:15.917Z,15.65
2023-05-19T15:32:45.246Z,15.57
2023-05-19T15:35:14.201Z,15.46
2023-05-19T15:37:43.474Z,15.53
2023-05-19T15:40:12.659Z,15.52
2023-05-19T15:42:44.820Z,15.47
2023-05-19T15:45:13.836Z,15.50
2023-05-19T15:47:43.008Z,15.48
2023-05-19T15:50:12.392Z,15.38
2023-05-19T15:52:41.930Z,15.36
2023-05-19T15:55:11.106Z,15.27
2023-05-19T15:57:40.717Z,15.31
2023-05-19T16:00:12.218Z,15.32
2023-05-19T16:02:41.821Z,15.28
2023-05-19T16:05:10.913Z,15.25
2023-05-19T16:07:42.109Z,15.20
2023-05-19T16:10:11.411Z,15.12
2023-05-19T16:12:40.762Z,15.12
2023-05-19T16:15:11.560Z,15.06
2023-05-19T16:17:41.410Z,15.00
2023-05-19T16:20:11.102Z,14.90
2023-05-19T16:22:40.370Z,14.86
2023-05-19T16:25:09.635Z,14.82
2023-05-19T16:27:38.938Z,14.77
2023-05-19T16:30:09.026Z,14.73
2023-05-19T16:32:42.662Z,14.71
2023-05-19T16:35:11.792Z,14.75
2023-05-19T16:37:40.945Z,14.72
2023-05-19T16:40:10.328Z,14.62
2023-05-19T16:42:39.442Z,14.58
2023-05-19T16:45:09.114Z,14.55
2023-05-19T16:47:39.678Z,14.48
2023-05-19T16:50:09.097Z,14.42
2023-05-19T16:52:38.211Z,14.35
2023-05-19T16:55:07.348Z,14.32
2023-05-19T16:57:36.620Z,14.29
2023-05-19T17:00:06.230Z,14.21
2023-05-19T17:02:35.452Z,14.15
2023-05-19T17:05:06.125Z,14.13
2023-05-19T17:07:35.456Z,14.08
2023-05-19T17:10:04.366Z,14.09
2023-05-19T17:12:33.693Z,14.08
2023-05-19T17:15:02.503Z,14.04
2023-05-19T17:17:31.750Z,14.01
2023-05-19T17:20:00.823Z,14.00
2023-05-19T17:22:31.410Z,13.94
2023-05-19T17:25:00.373Z,13.89
2023-05-19T17:27:29.513Z,13.91
2023-05-19T17:29:58.439Z,13.88
2023-05-19T17:32:29.131Z,13.81
2023-05-19T17:34:59.297Z,13.81
2023-05-19T17:37:28.603Z,13.80
2023-05-19T17:39:58.873Z,13.78
2023-05-19T17:42:29.153Z,13.75
2023-05-19T17:44:58.575Z,13.75
2023-05-19T17:47:27.744Z,13.73
2023-05-19T17:49:56.604Z,13.71
2023-05-19T17:52:26.562Z,13.69
2023-05-19T17:54:55.724Z,13.65
2023-05-19T17:57:26.998Z,13.65
2023-05-19T17:59:56.193Z,13.63
2023-05-19T18:02:26.357Z,13.59
2023-05-19T18:04:55.737Z,13.58
2023-05-19T18:07:26.223Z,13.54
2023-05-19T18:09:56.481Z,13.50
2023-05-19T18:12:27.210Z,13.51
2023-05-19T18:14:56.503Z,13.49
2023-05-19T18:17:25.705Z,13.46
2023-05-19T18:19:55.657Z,13.43
2023-05-19T18:22:24.849Z,13.41
2023-05-19T18:24:53.863Z,13.37
2023-05-19T18:27:22.964Z,13.34
2023-05-19T18:29:53.290Z,13.30
2023-05-19T18:32:22.689Z,13.28
2023-05-19T18:34:52.125Z,13.24
2023-05-19T18:37:21.395Z,13.16
2023-05-19T18:39:50.490Z,13.15
2023-05-19T18:42:19.884Z,13.15
2023-05-19T18:44:50.581Z,13.14
2023-05-19T18:47:22.851Z,13.13
2023-05-19T18:49:51.906Z,13.10
2023-05-19T18:52:21.784Z,13.05
2023-05-19T18:54:50.866Z,13.05
2023-05-19T18:57:20.548Z,13.02
2023-05-19T18:59:49.482Z,13.00
2023-05-19T19:02:19.232Z,13.00
2023-05-19T19:04:49.673Z,12.96
2023-05-19T19:07:19.507Z,12.89
2023-05-19T19:09:48.512Z,12.88
2023-05-19T19:12:19.078Z,12.85
2023-05-19T19:14:49.276Z,12.83
2023-05-19T19:17:18.443Z,12.76
2023-05-19T19:19:47.459Z,12.76
2023-05-19T19:22:18.336Z,12.76
2023-05-19T19:24:47.517Z,12.70
2023-05-19T19:27:19.975Z,12.69
2023-05-19T19:29:48.883Z,12.67
2023-05-19T19:32:18.356Z,12.65
2023-05-19T19:34:48.311Z,12.64
2023-05-19T19:37:19.025Z,12.60
2023-05-19T19:39:48.013Z,12.59
2023-05-19T19:42:17.205Z,12.58
2023-05-19T19:44:49.250Z,12.57
2023-05-19T19:47:18.552Z,12.53
2023-05-19T19:49:49.150Z,12.49
2023-05-19T19:52:21.262Z,12.49
2023-05-19T19:54:50.316Z,12.48
2023-05-19T19:57:19.457Z,12.40
2023-05-19T19:59:55.034Z,12.38
2023-05-19T20:02:24.795Z,12.44
2023-05-19T20:04:55.043Z,12.41
2023-05-19T20:07:27.284Z,12.35
2023-05-19T20:09:58.283Z,12.39
2023-05-19T20:12:30.104Z,12.40
2023-05-19T20:14:59.477Z,12.30
2023-05-19T20:17:28.740Z,12.27
2023-05-19T20:19:59.867Z,12.27
2023-05-19T20:22:30.802Z,12.24
2023-05-19T20:24:59.823Z,12.26
2023-05-19T20:27:28.944Z,12.23
2023-05-19T20:30:00.332Z,12.24
2023-05-19T20:32:29.754Z,12.22
2023-05-19T20:34:59.894Z,12.23
2023-05-19T20:37:31.485Z,12.20
2023-05-19T20:40:00.478Z,12.19
2023-05-19T20:42:29.608Z,12.20
2023-05-19T20:44:58.684Z,12.17
2023-05-19T20:47:30.271Z,12.16
2023-05-19T20:50:00.870Z,12.18
2023-05-19T20:52:33.086Z,12.21
2023-05-19T20:55:04.785Z,12.21
2023-05-19T20:57:34.208Z,12.23
2023-05-19T21:00:04.409Z,12.21
2023-05-19T21:02:34.689Z,12.19
2023-05-19T21:05:04.433Z,12.18
2023-05-19T21:07:36.689Z,12.16
2023-05-19T21:10:06.011Z,12.16
2023-05-19T21:12:35.760Z,12.14
2023-05-19T21:15:06.660Z,12.14
2023-05-19T21:17:35.896Z,12.13
2023-05-19T21:20:05.264Z,12.14
2023-05-19T21:22:36.832Z,12.11
2023-05-19T21:25:06.293Z,12.10
2023-05-19T21:27:39.574Z,12.09
2023-05-19T21:30:09.858Z,12.10
2023-05-19T21:32:39.137Z,12.14
2023-05-19T21:35:08.269Z,12.09
2023-05-19T21:37:38.878Z,12.04
2023-05-19T21:40:08.493Z,12.03
2023-05-19T21:42:37.632Z,12.02
2023-05-19T21:45:06.984Z,12.04
2023-05-19T21:47:36.483Z,12.03
2023-05-19T21:50:05.559Z,12.01
2023-05-19T21:52:36.143Z,12.00
2023-05-19T21:55:07.243Z,12.00
2023-05-19T21:57:38.399Z,11.97
2023-05-19T22:00:08.496Z,11.96
2023-05-19T22:02:41.049Z,11.94
2023-05-19T22:05:13.207Z,11.95
2023-05-19T22:07:42.780Z,11.92
2023-05-19T22:10:14.815Z,11.93
2023-05-19T22:12:46.893Z,11.91
2023-05-19T22:15:18.641Z,11.89
2023-05-19T22:17:47.919Z,11.86
2023-05-19T22:20:16.801Z,11.87
2023-05-19T22:22:47.440Z,11.86
2023-05-19T22:25:17.781Z,11.85
2023-05-19T22:27:47.116Z,11.81
2023-05-19T22:30:16.462Z,11.81
2023-05-19T22:32:45.743Z,11.80
2023-05-19T22:35:14.590Z,11.78
2023-05-19T22:37:43.870Z,11.75
2023-05-19T22:40:13.051Z,11.72
2023-05-19T22:42:43.546Z,11.68
2023-05-19T22:45:12.624Z,11.71
2023-05-19T22:47:41.882Z,11.70
2023-05-19T22:50:12.258Z,11.66
2023-05-19T22:52:41.551Z,11.64
2023-05-19T22:55:11.056Z,11.63
2023-05-19T22:57:40.343Z,11.62
2023-05-19T23:00:14.090Z,11.60
2023-05-19T23:02:43.455Z,11.53
2023-05-19T23:05:12.600Z,11.51
2023-05-19T23:07:41.700Z,11.48
2023-05-19T23:10:11.040Z,11.46
2023-05-19T23:12:40.810Z,11.46
2023-05-19T23:15:12.193Z,11.46
2023-05-19T23:17:41.474Z,11.52
2023-05-19T23:20:10.751Z,11.51
2023-05-19T23:22:39.940Z,11.52
2023-05-19T23:25:09.184Z,11.52
2023-05-19T23:27:38.499Z,11.49
2023-05-19T23:30:07.906Z,11.48
2023-05-19T23:32:38.606Z,11.49
2023-05-19T23:35:11.734Z,11.50
2023-05-19T23:37:41.019Z,11.49
2023-05-19T23:40:10.364Z,11.49
2023-05-19T23:42:39.529Z,11.48
2023-05-19T23:45:09.012Z,11.46
2023-05-19T23:47:39.765Z,11.47
2023-05-19T23:50:08.958Z,11.45
2023-05-19T23:52:38.068Z,11.38
2023-05-19T23:55:07.581Z,11.39
2023-05-19T23:57:36.783Z,11.40
